Time;durP1;ratioP1;P1;durP2;ratioP2;P2;SDS_P1;SDS_P2;PMS_P1;PMS_P2;Temp;Humidity;BMP_temperature;BMP_pressure;BME280_temperature;BME280_humidity;BME280_pressure;Samples;Min_cycle;Max_cycle;Signal;HPM_P1;HPM_P2
2021/09/12 00:00:49;;;;;;;8.73;2.80;;;17.90;99.90;;;;;;5040369;28;20550;-62
2021/09/12 00:03:14;;;;;;;7.35;1.98;;;17.80;99.90;;;;;;5041260;28;20056;-62
2021/09/12 00:05:40;;;;;;;8.35;1.90;;;17.80;99.90;;;;;;5043629;28;20056;-62
2021/09/12 00:08:05;;;;;;;11.18;2.30;;;17.70;99.90;;;;;;5043924;28;20037;-62
2021/09/12 00:10:31;;;;;;;9.63;1.75;;;17.70;99.90;;;;;;5043202;28;20037;-62
2021/09/12 00:12:57;;;;;;;7.82;1.90;;;17.70;99.90;;;;;;5040862;28;20116;-63
2021/09/12 00:15:23;;;;;;;7.43;1.92;;;17.70;99.90;;;;;;5042248;28;20064;-62
2021/09/12 00:17:49;;;;;;;6.55;2.00;;;17.60;99.90;;;;;;5041725;28;20052;-62
2021/09/12 00:20:15;;;;;;;7.32;1.80;;;17.70;99.90;;;;;;5040908;28;20037;-62
2021/09/12 00:22:40;;;;;;;7.60;2.15;;;17.70;99.90;;;;;;5043529;28;20029;-62
2021/09/12 00:25:07;;;;;;;8.35;1.50;;;17.60;99.90;;;;;;5039670;28;20029;-62
2021/09/12 00:27:33;;;;;;;5.25;1.90;;;17.60;99.90;;;;;;5042883;28;20840;-62
2021/09/12 00:29:58;;;;;;;6.45;1.58;;;17.50;99.90;;;;;;5040250;28;20033;-63
2021/09/12 00:32:24;;;;;;;12.20;2.47;;;17.40;99.90;;;;;;5042054;28;20042;-62
2021/09/12 00:34:50;;;;;;;9.00;2.03;;;17.40;99.90;;;;;;5041527;28;20029;-62
2021/09/12 00:37:16;;;;;;;7.82;1.70;;;17.40;99.90;;;;;;5040797;28;20434;-64
2021/09/12 00:39:42;;;;;;;9.25;2.00;;;17.30;99.90;;;;;;5044248;28;20044;-62
2021/09/12 00:42:07;;;;;;;6.50;1.80;;;17.20;99.90;;;;;;5038903;28;20057;-62
2021/09/12 00:44:33;;;;;;;6.88;1.85;;;17.20;99.90;;;;;;5051682;28;20025;-62
2021/09/12 00:47:08;;;;;;;10.52;1.77;;;17.20;99.90;;;;;;5029196;28;20037;-62
2021/09/12 00:49:34;;;;;;;11.68;2.08;;;17.10;99.90;;;;;;5041408;28;20493;-63
2021/09/12 00:52:01;;;;;;;8.68;1.80;;;17.10;99.90;;;;;;5043840;28;20128;-62
2021/09/12 00:54:29;;;;;;;10.70;2.30;;;17.00;99.90;;;;;;5043341;28;20056;-61
2021/09/12 00:56:56;;;;;;;5.95;1.75;;;16.90;99.90;;;;;;5039897;28;20063;-62
2021/09/12 00:59:22;;;;;;;7.40;1.83;;;16.90;99.90;;;;;;5041070;28;20034;-62
2021/09/12 01:01:49;;;;;;;3.65;2.05;;;16.90;99.90;;;;;;5045480;28;20066;-62
2021/09/12 01:04:15;;;;;;;5.95;1.75;;;16.90;99.90;;;;;;5041574;28;20036;-62
2021/09/12 01:06:42;;;;;;;8.43;2.08;;;16.80;99.90;;;;;;5039783;28;20033;-62
2021/09/12 01:09:07;;;;;;;9.25;1.70;;;16.80;99.90;;;;;;5041539;28;20037;-62
2021/09/12 01:11:34;;;;;;;8.68;2.25;;;16.80;99.90;;;;;;5038901;28;20051;-62
2021/09/12 01:13:59;;;;;;;9.02;2.92;;;16.70;99.90;;;;;;5042220;28;20029;-63
2021/09/12 01:16:25;;;;;;;6.00;1.70;;;16.60;99.90;;;;;;5040018;28;20036;-62
2021/09/12 01:18:50;;;;;;;9.88;2.88;;;16.60;99.90;;;;;;5044778;28;20034;-62
2021/09/12 01:21:21;;;;;;;11.48;2.13;;;16.50;99.90;;;;;;5040879;28;20495;-63
2021/09/12 01:23:48;;;;;;;8.25;1.58;;;16.60;99.90;;;;;;5040601;28;20076;-63
2021/09/12 01:26:22;;;;;;;6.95;1.90;;;16.50;99.90;;;;;;5040822;28;20029;-62
2021/09/12 01:28:48;;;;;;;9.35;2.03;;;16.50;99.90;;;;;;5040597;28;20551;-62
2021/09/12 01:31:25;;;;;;;10.88;2.50;;;16.40;99.90;;;;;;5040854;28;20143;-61
2021/09/12 01:33:51;;;;;;;12.32;2.95;;;16.40;99.90;;;;;;5041021;28;20550;-63
2021/09/12 01:36:17;;;;;;;7.40;2.38;;;16.40;99.90;;;;;;5040052;28;20037;-62
2021/09/12 01:38:43;;;;;;;9.93;2.38;;;16.30;99.90;;;;;;5039723;28;20052;-63
2021/09/12 01:41:09;;;;;;;15.85;2.83;;;16.20;99.90;;;;;;5042078;28;20030;-63
2021/09/12 01:43:35;;;;;;;6.05;2.17;;;16.20;99.90;;;;;;5042290;28;20397;-62
2021/09/12 01:46:00;;;;;;;9.48;2.45;;;16.20;99.90;;;;;;5038221;28;20022;-62
2021/09/12 01:48:26;;;;;;;9.43;2.53;;;16.20;99.90;;;;;;5044771;28;20467;-61
2021/09/12 01:50:52;;;;;;;12.57;2.15;;;16.10;99.90;;;;;;5039239;28;20095;-62
2021/09/12 01:53:17;;;;;;;9.38;2.15;;;16.10;99.90;;;;;;5042496;28;20033;-63
2021/09/12 01:55:43;;;;;;;14.23;2.40;;;16.10;99.90;;;;;;5039486;28;20068;-62
2021/09/12 01:58:08;;;;;;;7.22;2.08;;;16.10;99.90;;;;;;5040601;28;20029;-62
2021/09/12 02:00:34;;;;;;;7.38;2.45;;;16.10;99.90;;;;;;5038273;28;20033;-62
2021/09/12 02:03:00;;;;;;;11.27;2.53;;;16.00;99.90;;;;;;5041724;28;20029;-62
2021/09/12 02:05:26;;;;;;;11.05;2.83;;;16.00;99.90;;;;;;5037062;28;20041;-63
2021/09/12 02:07:52;;;;;;;7.30;2.42;;;16.00;99.90;;;;;;5038945;28;20033;-62
2021/09/12 02:10:17;;;;;;;12.00;3.03;;;16.00;99.90;;;;;;5039506;28;20059;-62
2021/09/12 02:12:43;;;;;;;11.10;2.55;;;15.90;99.90;;;;;;5040309;28;20032;-63
2021/09/12 02:15:09;;;;;;;5.60;2.50;;;15.80;99.90;;;;;;5038362;28;20087;-63
2021/09/12 02:17:36;;;;;;;7.43;2.63;;;15.80;99.90;;;;;;5040978;28;20455;-62
2021/09/12 02:20:02;;;;;;;11.20;2.83;;;15.80;99.90;;;;;;5037938;28;20112;-62
2021/09/12 02:22:28;;;;;;;9.70;3.25;;;15.70;99.90;;;;;;5037436;28;20033;-62
2021/09/12 02:24:53;;;;;;;10.05;2.83;;;15.70;99.90;;;;;;5040864;28;20083;-62
2021/09/12 02:27:19;;;;;;;10.50;2.80;;;15.60;99.90;;;;;;5038554;28;20045;-62
2021/09/12 02:29:45;;;;;;;7.68;2.85;;;15.70;99.90;;;;;;5039657;28;20052;-61
2021/09/12 02:32:10;;;;;;;11.30;2.88;;;15.60;99.90;;;;;;5039865;28;20033;-62
2021/09/12 02:34:36;;;;;;;7.13;2.90;;;15.60;99.90;;;;;;5038177;28;20029;-62
2021/09/12 02:37:02;;;;;;;6.43;2.38;;;15.60;99.90;;;;;;5023052;28;20029;-62
2021/09/12 02:39:27;;;;;;;9.63;3.65;;;15.60;99.90;;;;;;5044352;28;20032;-62
2021/09/12 02:41:53;;;;;;;7.00;2.83;;;15.60;99.90;;;;;;5041915;28;20078;-63
2021/09/12 02:44:18;;;;;;;10.35;3.20;;;15.60;99.90;;;;;;5038689;28;20396;-63
2021/09/12 02:46:44;;;;;;;11.20;2.63;;;15.60;99.90;;;;;;5039249;28;20030;-63
2021/09/12 02:49:10;;;;;;;13.52;3.13;;;15.70;99.90;;;;;;5038862;28;20583;-62
2021/09/12 02:51:35;;;;;;;7.05;2.80;;;15.60;99.90;;;;;;5037097;28;20026;-60
2021/09/12 02:54:01;;;;;;;11.20;3.20;;;15.70;99.90;;;;;;5026847;28;20447;-62
2021/09/12 02:56:26;;;;;;;7.45;3.20;;;15.60;99.90;;;;;;5040629;28;20653;-62
2021/09/12 02:58:52;;;;;;;9.63;3.22;;;15.60;99.90;;;;;;5041484;28;20060;-66
2021/09/12 03:01:17;;;;;;;13.73;3.17;;;15.70;99.90;;;;;;5038628;28;20037;-62
2021/09/12 03:03:43;;;;;;;10.52;3.47;;;15.60;99.90;;;;;;5039516;28;20040;-61
2021/09/12 03:06:08;;;;;;;10.65;3.20;;;15.60;99.90;;;;;;5039505;28;20111;-63
2021/09/12 03:08:34;;;;;;;6.50;2.97;;;15.60;99.90;;;;;;5037460;28;20026;-62
2021/09/12 03:10:59;;;;;;;8.13;3.55;;;15.60;99.90;;;;;;5022866;28;20064;-62
2021/09/12 03:13:25;;;;;;;8.75;2.50;;;15.60;99.90;;;;;;5037119;28;20473;-62
2021/09/12 03:15:51;;;;;;;9.73;3.25;;;15.50;99.90;;;;;;5040033;28;20241;-64
2021/09/12 03:18:16;;;;;;;8.02;3.03;;;15.40;99.90;;;;;;5038256;28;20128;-62
2021/09/12 03:20:42;;;;;;;14.23;4.07;;;15.40;99.90;;;;;;5020620;28;20048;-62
2021/09/12 03:23:08;;;;;;;13.05;4.00;;;15.30;99.90;;;;;;5039724;28;20551;-62
2021/09/12 03:25:33;;;;;;;9.07;3.33;;;15.30;99.90;;;;;;5037487;28;20044;-62
2021/09/12 03:27:59;;;;;;;11.20;3.78;;;15.20;99.90;;;;;;5040726;28;20029;-62
2021/09/12 03:30:25;;;;;;;7.85;3.47;;;15.20;99.90;;;;;;5019002;28;20069;-63
2021/09/12 03:32:51;;;;;;;12.05;3.95;;;15.20;99.90;;;;;;5040288;28;20037;-64
2021/09/12 03:35:17;;;;;;;8.52;3.45;;;15.10;99.90;;;;;;5042442;28;20037;-61
2021/09/12 03:37:43;;;;;;;16.23;4.15;;;15.10;99.90;;;;;;5042279;28;20585;-64
2021/09/12 03:40:09;;;;;;;13.35;4.22;;;15.00;99.90;;;;;;5048927;28;20040;-62
2021/09/12 03:42:35;;;;;;;15.68;3.95;;;15.00;99.90;;;;;;5040877;28;20443;-62
2021/09/12 03:45:01;;;;;;;13.32;4.38;;;14.90;99.90;;;;;;5044104;28;20120;-64
2021/09/12 03:47:26;;;;;;;10.48;4.50;;;14.90;99.90;;;;;;5039754;28;20045;-64
2021/09/12 03:49:52;;;;;;;12.35;4.40;;;14.90;99.90;;;;;;5043717;28;20033;-61
2021/09/12 03:52:18;;;;;;;12.90;4.50;;;14.90;99.90;;;;;;5047747;28;20033;-62
2021/09/12 03:54:43;;;;;;;11.48;4.68;;;14.80;99.90;;;;;;5041617;28;20033;-63
2021/09/12 03:57:09;;;;;;;11.85;5.00;;;14.80;99.90;;;;;;5042073;28;20049;-62
2021/09/12 03:59:34;;;;;;;9.18;3.95;;;14.80;99.90;;;;;;5042780;28;20044;-61
2021/09/12 04:02:00;;;;;;;12.52;4.68;;;14.70;99.90;;;;;;5040893;28;20048;-62
2021/09/12 04:04:25;;;;;;;15.45;4.45;;;14.70;99.90;;;;;;5044118;28;20041;-62
2021/09/12 04:06:51;;;;;;;12.75;4.22;;;14.70;99.90;;;;;;5040261;28;20041;-61
2021/09/12 04:09:16;;;;;;;7.28;4.10;;;14.70;99.90;;;;;;5043306;28;20484;-61
2021/09/12 04:11:42;;;;;;;9.65;3.88;;;14.70;99.90;;;;;;5041318;28;20509;-65
2021/09/12 04:14:08;;;;;;;12.90;5.13;;;14.70;99.90;;;;;;5042236;28;20060;-62
2021/09/12 04:16:33;;;;;;;11.88;4.20;;;14.60;99.90;;;;;;5042008;28;20025;-62
2021/09/12 04:18:59;;;;;;;12.27;4.65;;;14.70;99.90;;;;;;5040275;28;20021;-62
2021/09/12 04:21:24;;;;;;;9.68;4.22;;;14.60;99.90;;;;;;5043878;28;20036;-63
2021/09/12 04:23:50;;;;;;;10.60;4.60;;;14.70;99.90;;;;;;5040137;28;20056;-62
2021/09/12 04:26:16;;;;;;;17.65;4.70;;;14.80;99.90;;;;;;5022758;28;20041;-61
2021/09/12 04:28:41;;;;;;;12.68;4.43;;;14.80;99.90;;;;;;5041762;28;20030;-62
2021/09/12 04:31:07;;;;;;;16.00;5.15;;;14.90;99.90;;;;;;5041849;28;20033;-62
2021/09/12 04:33:33;;;;;;;12.95;4.57;;;14.90;99.90;;;;;;5043241;28;20088;-62
2021/09/12 04:35:58;;;;;;;9.25;4.47;;;14.90;99.90;;;;;;5042561;28;20025;-61
2021/09/12 04:38:24;;;;;;;10.82;4.72;;;15.10;99.90;;;;;;5044149;28;20033;-63
2021/09/12 04:40:50;;;;;;;17.80;4.57;;;15.10;99.90;;;;;;5045921;28;20068;-63
2021/09/12 04:43:15;;;;;;;13.30;4.47;;;15.10;99.90;;;;;;5040778;28;20033;-62
2021/09/12 04:45:41;;;;;;;12.48;4.45;;;15.20;99.90;;;;;;5041327;28;20075;-62
2021/09/12 04:48:07;;;;;;;12.57;4.65;;;15.20;99.90;;;;;;5041236;28;20045;-62
2021/09/12 04:50:33;;;;;;;15.10;5.43;;;15.30;99.90;;;;;;5040775;28;20033;-62
2021/09/12 04:52:58;;;;;;;14.80;4.70;;;15.30;99.90;;;;;;5045939;28;20223;-64
2021/09/12 04:55:24;;;;;;;15.73;5.00;;;15.30;99.90;;;;;;5043521;28;20515;-63
2021/09/12 04:57:50;;;;;;;14.00;5.07;;;15.40;99.90;;;;;;5039240;28;20071;-62
2021/09/12 05:00:16;;;;;;;14.05;4.63;;;15.40;99.90;;;;;;5042364;28;20029;-62
2021/09/12 05:02:41;;;;;;;14.23;5.55;;;15.40;99.90;;;;;;5040150;28;20040;-64
2021/09/12 05:05:07;;;;;;;18.30;6.05;;;15.40;99.90;;;;;;5041602;28;20033;-63
2021/09/12 05:07:33;;;;;;;16.65;5.60;;;15.40;99.90;;;;;;5041615;28;20053;-61
2021/09/12 05:09:59;;;;;;;12.30;5.35;;;15.50;99.90;;;;;;5039636;28;20251;-62
2021/09/12 05:12:25;;;;;;;15.48;5.75;;;15.50;99.90;;;;;;5042993;28;20025;-63
2021/09/12 05:14:50;;;;;;;13.15;5.82;;;15.50;99.90;;;;;;5039006;28;20030;-62
2021/09/12 05:17:16;;;;;;;15.60;5.45;;;15.40;99.90;;;;;;5042480;28;20087;-62
2021/09/12 05:19:42;;;;;;;15.63;6.07;;;15.40;99.90;;;;;;5040151;28;20381;-64
2021/09/12 05:22:07;;;;;;;19.65;6.75;;;15.50;99.90;;;;;;5041238;28;20045;-62
2021/09/12 05:24:33;;;;;;;14.45;6.47;;;15.50;99.90;;;;;;5041422;28;20485;-61
2021/09/12 05:26:58;;;;;;;15.25;5.93;;;15.50;99.90;;;;;;5039540;28;20037;-62
2021/09/12 05:29:24;;;;;;;16.83;5.53;;;15.50;99.90;;;;;;5042248;28;20037;-63
2021/09/12 05:31:51;;;;;;;16.98;5.82;;;15.50;99.90;;;;;;5038817;28;20025;-64
2021/09/12 05:34:16;;;;;;;19.08;5.47;;;15.40;99.90;;;;;;5024894;28;20071;-62
2021/09/12 05:36:42;;;;;;;16.75;5.82;;;15.40;99.90;;;;;;5039600;28;20045;-64
2021/09/12 05:39:08;;;;;;;19.08;5.85;;;15.30;99.90;;;;;;5041276;28;20037;-62
2021/09/12 05:41:33;;;;;;;12.15;5.20;;;15.30;99.90;;;;;;5044406;28;20026;-65
2021/09/12 05:43:59;;;;;;;20.20;6.50;;;15.40;99.90;;;;;;5040950;28;20028;-62
2021/09/12 05:46:25;;;;;;;13.88;5.47;;;15.40;99.90;;;;;;5039243;28;20025;-64
2021/09/12 05:48:50;;;;;;;14.80;5.78;;;15.40;99.90;;;;;;5041281;28;20506;-64
2021/09/12 05:51:16;;;;;;;11.93;5.68;;;15.40;99.90;;;;;;5039008;28;20028;-62
2021/09/12 05:53:42;;;;;;;11.75;5.43;;;15.50;99.90;;;;;;5045793;28;20501;-62
2021/09/12 05:56:07;;;;;;;19.80;5.40;;;15.50;99.90;;;;;;5039920;28;20117;-62
2021/09/12 05:58:33;;;;;;;19.30;5.72;;;15.50;99.90;;;;;;5040364;28;20079;-61
2021/09/12 06:00:59;;;;;;;14.52;5.30;;;15.60;99.90;;;;;;5039220;28;20082;-63
2021/09/12 06:03:24;;;;;;;14.45;5.20;;;15.60;99.90;;;;;;5041987;28;20029;-63
2021/09/12 06:05:50;;;;;;;14.82;6.07;;;15.60;99.90;;;;;;5038518;28;20025;-63
2021/09/12 06:08:16;;;;;;;16.90;5.63;;;15.60;99.90;;;;;;5040014;28;20029;-63
2021/09/12 06:10:41;;;;;;;14.77;6.28;;;15.60;99.90;;;;;;5041233;28;20612;-62
2021/09/12 06:13:07;;;;;;;12.80;5.47;;;15.70;99.90;;;;;;5039070;28;20116;-63
2021/09/12 06:15:33;;;;;;;9.85;4.40;;;15.70;99.90;;;;;;5039790;28;20032;-63
2021/09/12 06:17:58;;;;;;;15.95;5.88;;;15.70;99.90;;;;;;5040869;28;20067;-63
2021/09/12 06:20:24;;;;;;;14.88;5.50;;;15.80;99.90;;;;;;5039429;28;20115;-63
2021/09/12 06:22:51;;;;;;;20.67;6.32;;;15.80;99.90;;;;;;5038713;28;20433;-63
2021/09/12 06:25:17;;;;;;;13.80;5.03;;;15.80;99.90;;;;;;5041779;28;20059;-64
2021/09/12 06:27:44;;;;;;;11.93;4.70;;;15.90;99.90;;;;;;5038323;28;20072;-63
2021/09/12 06:30:12;;;;;;;12.00;5.75;;;16.00;99.90;;;;;;5040446;28;20047;-63
2021/09/12 06:32:37;;;;;;;11.40;5.25;;;16.10;99.90;;;;;;5040670;28;20480;-62
2021/09/12 06:35:04;;;;;;;21.58;5.63;;;16.00;99.90;;;;;;5040238;28;20037;-62
2021/09/12 06:37:30;;;;;;;17.40;5.10;;;16.10;99.90;;;;;;5037675;28;20048;-62
2021/09/12 06:39:55;;;;;;;16.80;6.10;;;16.10;99.90;;;;;;5041140;28;20652;-63
2021/09/12 06:42:21;;;;;;;10.40;4.97;;;16.10;99.90;;;;;;5023614;28;20029;-63
2021/09/12 06:44:46;;;;;;;17.15;5.85;;;16.10;99.90;;;;;;5037914;28;20575;-63
2021/09/12 06:47:12;;;;;;;15.98;5.78;;;16.10;99.90;;;;;;5040664;28;20111;-62
2021/09/12 06:49:37;;;;;;;18.08;5.35;;;16.10;99.90;;;;;;5037605;28;20045;-62
2021/09/12 06:52:03;;;;;;;14.60;5.40;;;16.10;99.90;;;;;;5034224;28;20035;-62
2021/09/12 06:54:29;;;;;;;18.40;6.22;;;16.20;99.90;;;;;;5038389;28;20033;-63
2021/09/12 06:56:55;;;;;;;16.17;5.78;;;16.20;99.90;;;;;;5032790;28;20393;-63
2021/09/12 06:59:20;;;;;;;10.57;5.40;;;16.30;99.90;;;;;;5037137;28;20052;-62
2021/09/12 07:01:46;;;;;;;10.93;5.07;;;16.30;99.90;;;;;;5034953;28;20374;-63
2021/09/12 07:04:12;;;;;;;14.60;5.50;;;16.40;99.90;;;;;;5036077;28;20033;-63
2021/09/12 07:06:37;;;;;;;13.07;5.78;;;16.50;99.90;;;;;;5015926;28;20040;-63
2021/09/12 07:09:04;;;;;;;13.13;5.80;;;16.70;99.90;;;;;;5033542;28;20048;-65
2021/09/12 07:11:29;;;;;;;12.10;6.32;;;16.80;99.90;;;;;;5033756;28;20033;-62
2021/09/12 07:13:55;;;;;;;12.63;5.50;;;16.90;99.90;;;;;;5036519;28;20534;-62
2021/09/12 07:16:21;;;;;;;19.65;6.00;;;16.90;99.90;;;;;;5037838;28;20100;-62
2021/09/12 07:18:46;;;;;;;17.60;5.65;;;17.00;99.90;;;;;;5034378;28;20063;-62
2021/09/12 07:21:12;;;;;;;14.95;5.32;;;17.10;99.90;;;;;;5034199;28;20482;-64
2021/09/12 07:23:37;;;;;;;20.13;5.95;;;17.00;99.90;;;;;;5037617;28;20492;-62
2021/09/12 07:26:03;;;;;;;13.90;4.95;;;16.90;99.90;;;;;;5036958;28;20029;-62
2021/09/12 07:28:29;;;;;;;11.63;5.35;;;16.90;99.90;;;;;;5036082;28;20057;-62
2021/09/12 07:30:54;;;;;;;15.15;5.13;;;16.80;99.90;;;;;;5033641;28;20127;-61
2021/09/12 07:33:20;;;;;;;18.50;6.07;;;16.80;99.90;;;;;;5034845;28;20420;-62
2021/09/12 07:35:45;;;;;;;13.00;5.80;;;16.80;99.90;;;;;;5037016;28;20113;-63
2021/09/12 07:38:11;;;;;;;15.70;6.28;;;16.80;99.90;;;;;;5034635;28;20036;-62
2021/09/12 07:40:37;;;;;;;14.52;6.32;;;16.80;99.90;;;;;;5038667;28;20033;-63
2021/09/12 07:43:03;;;;;;;15.68;5.82;;;16.90;99.90;;;;;;5034857;28;20492;-63
2021/09/12 07:45:28;;;;;;;14.27;5.97;;;16.90;99.90;;;;;;5036295;28;20098;-62
2021/09/12 07:47:54;;;;;;;18.27;5.30;;;17.00;99.90;;;;;;5035146;28;20496;-62
2021/09/12 07:50:19;;;;;;;16.92;6.15;;;17.00;99.90;;;;;;5039755;28;20439;-62
2021/09/12 07:52:45;;;;;;;21.73;6.10;;;17.00;99.90;;;;;;5037215;28;20029;-63
2021/09/12 07:55:12;;;;;;;13.07;5.85;;;17.00;99.90;;;;;;5045581;28;20037;-61
2021/09/12 07:57:38;;;;;;;15.30;5.68;;;17.00;99.90;;;;;;5044865;28;20032;-64
2021/09/12 08:00:05;;;;;;;22.58;7.43;;;17.10;99.90;;;;;;5027617;28;20438;-62
2021/09/12 08:02:31;;;;;;;19.90;7.30;;;17.10;99.90;;;;;;5044742;28;20099;-62
2021/09/12 08:04:56;;;;;;;23.52;7.00;;;17.20;99.90;;;;;;5044025;28;20493;-62
2021/09/12 08:07:22;;;;;;;16.40;6.63;;;17.30;99.90;;;;;;5046108;28;20059;-63
2021/09/12 08:09:47;;;;;;;16.98;6.60;;;17.30;99.90;;;;;;5042842;28;20037;-62
2021/09/12 08:12:13;;;;;;;22.60;6.53;;;17.30;99.90;;;;;;5044982;28;20423;-63
2021/09/12 08:14:38;;;;;;;14.98;6.82;;;17.40;99.90;;;;;;5027256;28;20084;-63
2021/09/12 08:17:04;;;;;;;25.35;7.65;;;17.50;99.90;;;;;;5045286;28;20049;-62
2021/09/12 08:19:30;;;;;;;21.45;7.25;;;17.50;99.90;;;;;;5046342;28;20443;-62
2021/09/12 08:21:55;;;;;;;23.05;7.47;;;17.70;99.90;;;;;;5045284;28;20388;-63
2021/09/12 08:24:21;;;;;;;26.98;7.20;;;17.70;99.90;;;;;;5038904;28;20034;-63
2021/09/12 08:26:47;;;;;;;20.98;7.75;;;17.80;99.90;;;;;;5040157;28;20037;-63
2021/09/12 08:29:12;;;;;;;21.52;6.00;;;17.90;99.90;;;;;;5042914;28;20392;-62
2021/09/12 08:31:38;;;;;;;18.40;7.05;;;17.90;99.90;;;;;;5040800;28;20029;-62
2021/09/12 08:34:04;;;;;;;18.15;5.82;;;18.00;99.90;;;;;;5019943;28;20069;-63
2021/09/12 08:36:29;;;;;;;18.90;6.40;;;18.10;99.90;;;;;;5039346;28;20033;-63
2021/09/12 08:38:55;;;;;;;26.83;7.78;;;18.30;99.90;;;;;;5036380;28;20362;-61
2021/09/12 08:41:20;;;;;;;16.52;7.35;;;18.20;99.90;;;;;;5042109;28;20075;-62
2021/09/12 08:43:47;;;;;;;19.52;6.85;;;18.30;99.90;;;;;;5021160;28;20029;-64
2021/09/12 08:46:14;;;;;;;22.85;8.00;;;18.40;99.90;;;;;;5041670;28;20033;-63
2021/09/12 08:48:40;;;;;;;20.48;7.78;;;18.50;99.90;;;;;;5040690;28;20029;-63
2021/09/12 08:51:06;;;;;;;24.60;8.35;;;18.60;99.90;;;;;;5037122;28;20067;-62
2021/09/12 08:53:31;;;;;;;27.23;9.10;;;18.60;99.90;;;;;;5038816;28;20038;-62
2021/09/12 08:55:58;;;;;;;21.05;7.40;;;18.60;99.90;;;;;;5041734;28;20489;-61
2021/09/12 08:58:25;;;;;;;22.38;9.75;;;18.70;99.90;;;;;;5040666;28;20040;-64
2021/09/12 09:00:51;;;;;;;24.38;8.52;;;18.80;99.90;;;;;;5022015;28;20409;-63
2021/09/12 09:03:16;;;;;;;27.27;9.23;;;18.80;99.90;;;;;;5042227;28;20092;-62
2021/09/12 09:05:43;;;;;;;22.33;9.10;;;18.80;99.90;;;;;;5024250;28;20396;-61
2021/09/12 09:08:16;;;;;;;28.27;9.35;;;18.80;99.90;;;;;;5040220;28;20108;-62
2021/09/12 09:10:47;;;;;;;23.90;9.10;;;18.90;99.90;;;;;;5045247;28;20056;-63
2021/09/12 09:13:24;;;;;;;;;;;18.90;99.90;;;;;;5039876;28;20033;-62
2021/09/12 09:15:50;;;;;;;23.83;9.38;;;19.00;99.90;;;;;;5038621;28;20399;-62
2021/09/12 09:18:15;;;;;;;27.77;8.50;;;19.10;99.90;;;;;;5040470;28;20041;-63
2021/09/12 09:20:41;;;;;;;23.27;8.90;;;19.10;99.90;;;;;;5042085;28;20033;-62
2021/09/12 09:23:07;;;;;;;30.90;9.75;;;19.30;99.90;;;;;;5038940;28;20059;-64
2021/09/12 09:25:33;;;;;;;28.85;10.00;;;19.40;99.90;;;;;;5039833;28;20045;-62
2021/09/12 09:28:07;;;;;;;23.92;9.77;;;19.50;99.90;;;;;;5042188;28;20714;-63
2021/09/12 09:30:32;;;;;;;22.48;8.65;;;19.50;99.90;;;;;;5038504;28;20433;-62
2021/09/12 09:33:25;;;;;;;22.25;8.60;;;19.50;99.90;;;;;;5039031;28;20434;-63
2021/09/12 09:36:02;;;;;;;26.85;7.68;;;19.50;99.90;;;;;;5040490;28;20033;-62
2021/09/12 09:38:31;;;;;;;30.60;9.13;;;19.70;99.90;;;;;;5040072;28;20033;-64
2021/09/12 09:41:13;;;;;;;29.25;11.35;;;19.70;99.90;;;;;;5044209;28;20029;-63
2021/09/12 09:43:47;;;;;;;26.52;9.52;;;19.70;99.90;;;;;;5035512;28;20029;-62
2021/09/12 09:46:29;;;;;;;26.63;10.73;;;19.70;99.90;;;;;;5044613;28;20034;-64
2021/09/12 09:48:56;;;;;;;25.08;10.05;;;19.70;99.90;;;;;;5023343;28;20045;-64
2021/09/12 09:51:22;;;;;;;35.55;12.45;;;19.70;99.90;;;;;;5042134;28;20075;-64
2021/09/12 09:53:48;;;;;;;26.02;10.25;;;19.70;99.90;;;;;;5042361;28;20436;-63
2021/09/12 09:56:14;;;;;;;32.90;12.10;;;19.80;99.90;;;;;;5039781;28;20100;-63
2021/09/12 09:58:43;;;;;;;24.80;9.70;;;19.80;99.90;;;;;;5024540;28;20045;-63
2021/09/12 10:01:08;;;;;;;23.08;10.15;;;19.90;99.90;;;;;;5038887;28;20083;-65
2021/09/12 10:03:35;;;;;;;27.20;10.93;;;20.00;99.90;;;;;;5044733;28;20037;-63
2021/09/12 10:06:01;;;;;;;24.58;9.30;;;20.10;99.90;;;;;;5046291;28;20473;-63
2021/09/12 10:08:27;;;;;;;23.60;9.43;;;20.10;99.90;;;;;;5042529;28;20052;-63
2021/09/12 10:10:54;;;;;;;24.98;10.60;;;20.20;99.90;;;;;;5039024;28;20447;-63
2021/09/12 10:13:22;;;;;;;30.88;10.82;;;20.40;99.90;;;;;;5038746;28;20033;-64
2021/09/12 10:15:51;;;;;;;25.73;9.98;;;20.40;99.90;;;;;;5021684;28;20463;-64
2021/09/12 10:18:24;;;;;;;24.30;10.32;;;20.60;99.90;;;;;;5038234;28;20044;-63
2021/09/12 10:20:49;;;;;;;18.33;8.95;;;20.70;99.90;;;;;;5039207;28;20065;-65
2021/09/12 10:23:15;;;;;;;19.25;9.40;;;20.80;99.90;;;;;;5042297;28;20057;-63
2021/09/12 10:25:50;;;;;;;24.88;11.18;;;20.70;99.90;;;;;;5038479;28;20033;-64
2021/09/12 10:28:31;;;;;;;20.63;9.52;;;20.80;99.90;;;;;;5040393;28;20044;-63
2021/09/12 10:30:57;;;;;;;25.77;9.50;;;20.90;99.90;;;;;;5040405;28;20041;-63
2021/09/12 10:33:25;;;;;;;26.98;10.25;;;20.90;99.90;;;;;;5041066;28;20033;-62
2021/09/12 10:36:00;;;;;;;24.50;9.05;;;21.20;99.90;;;;;;5053457;28;20095;-62
2021/09/12 10:38:39;;;;;;;23.05;8.57;;;21.50;99.90;;;;;;5042265;28;20056;-63
2021/09/12 10:41:04;;;;;;;20.90;10.05;;;21.90;99.90;;;;;;5037598;28;20060;-62
2021/09/12 10:43:30;;;;;;;18.02;10.25;;;22.10;99.90;;;;;;5041242;28;20488;-63
2021/09/12 10:46:01;;;;;;;21.42;8.82;;;22.20;99.90;;;;;;5037456;28;20132;-63
2021/09/12 10:48:29;;;;;;;18.63;9.25;;;22.20;99.90;;;;;;5040684;28;20170;-62
2021/09/12 10:50:56;;;;;;;22.30;9.32;;;22.20;99.90;;;;;;5019795;28;20064;-62
2021/09/12 10:53:47;;;;;;;19.15;9.13;;;22.20;99.90;;;;;;5042009;28;20032;-61
2021/09/12 10:56:15;;;;;;;19.58;9.48;;;22.00;99.90;;;;;;5038364;28;20095;-61
2021/09/12 10:58:42;;;;;;;24.63;10.85;;;21.90;99.90;;;;;;5039686;28;20060;-62
2021/09/12 11:01:11;;;;;;;22.33;9.88;;;21.60;99.90;;;;;;5037714;28;20044;-62
2021/09/12 11:03:37;;;;;;;17.58;9.82;;;21.70;99.90;;;;;;5040161;28;20059;-62
2021/09/12 11:06:03;;;;;;;17.20;9.93;;;21.60;99.90;;;;;;5024736;28;20030;-63
2021/09/12 11:08:36;;;;;;;31.92;10.27;;;21.50;99.90;;;;;;5037785;28;20501;-62
2021/09/12 11:11:03;;;;;;;25.77;10.60;;;21.30;99.90;;;;;;5036829;28;20041;-61
2021/09/12 11:13:29;;;;;;;19.30;9.90;;;21.10;99.90;;;;;;5037494;28;20033;-62
2021/09/12 11:16:10;;;;;;;27.00;10.00;;;20.90;99.90;;;;;;5022120;28;20028;-63
2021/09/12 11:18:48;;;;;;;22.38;10.13;;;20.80;99.90;;;;;;5038034;28;20037;-62
2021/09/12 11:21:36;;;;;;;24.50;10.13;;;20.70;99.90;;;;;;5021042;28;20439;-61
2021/09/12 11:24:06;;;;;;;21.05;10.43;;;20.50;99.90;;;;;;5036855;28;20033;-63
2021/09/12 11:26:48;;;;;;;29.58;11.32;;;20.40;99.90;;;;;;5022673;28;20037;-62
2021/09/12 11:29:20;;;;;;;24.70;11.15;;;20.50;99.90;;;;;;5038451;28;20037;-62
2021/09/12 11:31:48;;;;;;;22.92;10.55;;;20.50;99.90;;;;;;5038681;28;20033;-62
2021/09/12 11:34:17;;;;;;;25.95;11.45;;;20.50;99.90;;;;;;5038405;28;20064;-63
2021/09/12 11:37:01;;;;;;;27.33;10.75;;;20.60;99.90;;;;;;5038746;28;20068;-62
2021/09/12 11:39:28;;;;;;;23.67;10.73;;;20.80;99.90;;;;;;5043515;28;20055;-63
2021/09/12 11:41:57;;;;;;;26.48;11.55;;;20.80;99.90;;;;;;5022905;28;20037;-62
2021/09/12 11:44:35;;;;;;;26.10;10.98;;;20.90;99.90;;;;;;5036083;28;20108;-62
2021/09/12 11:47:03;;;;;;;24.95;11.02;;;21.10;99.90;;;;;;5037055;28;20032;-62
2021/09/12 11:49:29;;;;;;;25.17;11.18;;;21.20;99.90;;;;;;5040333;28;20551;-62
2021/09/12 11:51:55;;;;;;;21.98;10.27;;;21.30;99.90;;;;;;5043393;28;20128;-62
2021/09/12 11:54:22;;;;;;;19.08;9.43;;;21.40;99.90;;;;;;5041707;28;20041;-62
2021/09/12 11:56:58;;;;;;;24.33;9.75;;;21.50;99.90;;;;;;5041667;28;20041;-62
2021/09/12 11:59:25;;;;;;;21.77;10.90;;;21.60;99.90;;;;;;5043673;28;20040;-62
2021/09/12 12:01:53;;;;;;;27.83;10.15;;;21.70;99.90;;;;;;5041226;28;20045;-62
2021/09/12 12:04:19;;;;;;;18.38;9.27;;;21.60;99.90;;;;;;5042089;28;20068;-62
2021/09/12 12:06:50;;;;;;;22.10;9.13;;;21.70;99.90;;;;;;5042675;28;20060;-61
2021/09/12 12:09:20;;;;;;;13.50;7.20;;;21.70;99.90;;;;;;5043511;28;20481;-62
2021/09/12 12:11:48;;;;;;;11.77;5.53;;;21.70;99.90;;;;;;5041797;28;20063;-62
2021/09/12 12:14:19;;;;;;;7.25;4.15;;;21.90;99.90;;;;;;5042317;28;20037;-62
2021/09/12 12:16:45;;;;;;;6.93;2.85;;;21.90;99.90;;;;;;5023765;28;20029;-63
2021/09/12 12:19:12;;;;;;;1.75;1.00;;;22.20;99.90;;;;;;5041752;28;20037;-64
2021/09/12 12:21:40;;;;;;;4.80;0.50;;;22.30;99.90;;;;;;5024906;28;20029;-62
2021/09/12 12:24:15;;;;;;;0.50;0.22;;;22.40;99.90;;;;;;5041148;28;20494;-63
2021/09/12 12:26:47;;;;;;;0.88;0.40;;;22.50;99.90;;;;;;5041785;28;20476;-62
2021/09/12 12:29:29;;;;;;;0.90;0.68;;;22.60;99.90;;;;;;5042289;28;20548;-61
2021/09/12 12:31:58;;;;;;;1.25;0.55;;;22.70;99.90;;;;;;5040400;28;20029;-62
2021/09/12 12:34:43;;;;;;;1.30;0.38;;;22.70;99.90;;;;;;5032489;28;20033;-62
2021/09/12 12:37:15;;;;;;;1.30;0.43;;;22.70;99.90;;;;;;5040882;28;20515;-62